sensor_id;sensor_type;location;lat;lon;timestamp;temperature;humidity
13091;DHT22;6611;52.604;13.438;2023-02-01T00:02:19;4.35;85.91
13091;DHT22;6611;52.604;13.438;2023-02-01T00:07:21;4.28;86.22
13091;DHT22;6611;52.604;13.438;2023-02-01T00:12:24;4.38;85.75
13091;DHT22;6611;52.604;13.438;2023-02-01T00:17:26;4.39;85.30
13091;DHT22;6611;52.604;13.438;2023-02-01T00:22:27;4.33;85.62
13091;DHT22;6611;52.604;13.438;2023-02-01T00:27:30;4.31;85.87
13091;DHT22;6611;52.604;13.438;2023-02-01T00:32:32;4.23;85.89
13091;DHT22;6611;52.604;13.438;2023-02-01T00:37:34;4.31;85.10
13091;DHT22;6611;52.604;13.438;2023-02-01T00:42:37;4.35;84.15
13091;DHT22;6611;52.604;13.438;2023-02-01T00:47:38;4.33;84.36
13091;DHT22;6611;52.604;13.438;2023-02-01T00:52:40;4.48;83.50
13091;DHT22;6611;52.604;13.438;2023-02-01T00:57:43;4.54;83.19
13091;DHT22;6611;52.604;13.438;2023-02-01T01:02:45;4.63;83.07
13091;DHT22;6611;52.604;13.438;2023-02-01T01:07:46;4.57;83.66
13091;DHT22;6611;52.604;13.438;2023-02-01T01:12:49;4.56;83.72
13091;DHT22;6611;52.604;13.438;2023-02-01T01:17:51;4.56;83.19
13091;DHT22;6611;52.604;13.438;2023-02-01T01:22:53;4.59;82.77
13091;DHT22;6611;52.604;13.438;2023-02-01T01:27:56;4.48;84.14
13091;DHT22;6611;52.604;13.438;2023-02-01T01:32:58;4.53;83.05
13091;DHT22;6611;52.604;13.438;2023-02-01T01:38:00;4.61;82.64
13091;DHT22;6611;52.604;13.438;2023-02-01T01:43:10;4.50;82.85
13091;DHT22;6611;52.604;13.438;2023-02-01T01:48:17;4.45;82.55
13091;DHT22;6611;52.604;13.438;2023-02-01T01:53:25;4.40;82.79
13091;DHT22;6611;52.604;13.438;2023-02-01T01:58:31;4.49;82.23
13091;DHT22;6611;52.604;13.438;2023-02-01T02:03:37;4.50;82.79
13091;DHT22;6611;52.604;13.438;2023-02-01T02:08:40;4.52;82.62
13091;DHT22;6611;52.604;13.438;2023-02-01T02:13:47;4.52;82.41
13091;DHT22;6611;52.604;13.438;2023-02-01T02:19:00;4.52;82.64
13091;DHT22;6611;52.604;13.438;2023-02-01T02:24:28;4.54;82.15
13091;DHT22;6611;52.604;13.438;2023-02-01T02:29:54;4.54;81.82
13091;DHT22;6611;52.604;13.438;2023-02-01T02:35:06;4.50;82.56
13091;DHT22;6611;52.604;13.438;2023-02-01T02:40:15;4.54;81.68
13091;DHT22;6611;52.604;13.438;2023-02-01T02:45:26;4.61;81.26
13091;DHT22;6611;52.604;13.438;2023-02-01T02:50:51;4.63;81.61
13091;DHT22;6611;52.604;13.438;2023-02-01T02:56:14;4.63;81.54
13091;DHT22;6611;52.604;13.438;2023-02-01T03:01:34;4.66;81.53
13091;DHT22;6611;52.604;13.438;2023-02-01T03:06:55;4.63;81.50
13091;DHT22;6611;52.604;13.438;2023-02-01T03:12:01;4.61;81.59
13091;DHT22;6611;52.604;13.438;2023-02-01T03:17:27;4.57;81.61
13091;DHT22;6611;52.604;13.438;2023-02-01T03:22:33;4.57;82.01
13091;DHT22;6611;52.604;13.438;2023-02-01T03:27:39;4.59;81.52
13091;DHT22;6611;52.604;13.438;2023-02-01T03:32:43;4.66;81.34
13091;DHT22;6611;52.604;13.438;2023-02-01T03:38:07;4.63;81.40
13091;DHT22;6611;52.604;13.438;2023-02-01T03:43:14;4.59;81.65
13091;DHT22;6611;52.604;13.438;2023-02-01T03:48:19;4.59;81.49
13091;DHT22;6611;52.604;13.438;2023-02-01T03:53:24;4.60;81.52
13091;DHT22;6611;52.604;13.438;2023-02-01T03:58:26;4.63;81.06
13091;DHT22;6611;52.604;13.438;2023-02-01T04:03:29;4.63;81.37
13091;DHT22;6611;52.604;13.438;2023-02-01T04:08:32;4.68;81.10
13091;DHT22;6611;52.604;13.438;2023-02-01T04:13:33;4.76;81.02
13091;DHT22;6611;52.604;13.438;2023-02-01T04:18:35;4.71;81.22
13091;DHT22;6611;52.604;13.438;2023-02-01T04:23:38;4.74;80.92
13091;DHT22;6611;52.604;13.438;2023-02-01T04:28:40;4.87;80.72
13091;DHT22;6611;52.604;13.438;2023-02-01T04:33:42;4.92;80.45
13091;DHT22;6611;52.604;13.438;2023-02-01T04:38:45;4.92;80.72
13091;DHT22;6611;52.604;13.438;2023-02-01T04:43:48;4.92;80.45
13091;DHT22;6611;52.604;13.438;2023-02-01T04:48:50;4.96;80.66
13091;DHT22;6611;52.604;13.438;2023-02-01T04:53:53;5.02;80.32
13091;DHT22;6611;52.604;13.438;2023-02-01T04:58:56;5.07;80.29
13091;DHT22;6611;52.604;13.438;2023-02-01T05:03:58;5.18;79.75
13091;DHT22;6611;52.604;13.438;2023-02-01T05:09:01;5.18;80.29
13091;DHT22;6611;52.604;13.438;2023-02-01T05:14:03;5.16;80.24
13091;DHT22;6611;52.604;13.438;2023-02-01T05:19:04;5.22;80.28
13091;DHT22;6611;52.604;13.438;2023-02-01T05:24:08;5.32;79.85
13091;DHT22;6611;52.604;13.438;2023-02-01T05:29:20;5.29;80.15
13091;DHT22;6611;52.604;13.438;2023-02-01T05:34:22;5.30;79.41
13091;DHT22;6611;52.604;13.438;2023-02-01T05:39:25;5.40;78.93
13091;DHT22;6611;52.604;13.438;2023-02-01T05:44:27;5.39;78.75
13091;DHT22;6611;52.604;13.438;2023-02-01T05:49:29;5.48;78.91
13091;DHT22;6611;52.604;13.438;2023-02-01T05:54:32;5.44;79.60
13091;DHT22;6611;52.604;13.438;2023-02-01T05:59:33;5.44;78.79
13091;DHT22;6611;52.604;13.438;2023-02-01T06:04:37;5.48;78.60
13091;DHT22;6611;52.604;13.438;2023-02-01T06:09:41;5.48;79.00
13091;DHT22;6611;52.604;13.438;2023-02-01T06:14:42;5.48;78.89
13091;DHT22;6611;52.604;13.438;2023-02-01T06:19:45;5.48;79.53
13091;DHT22;6611;52.604;13.438;2023-02-01T06:24:50;5.40;80.88
13091;DHT22;6611;52.604;13.438;2023-02-01T06:29:51;5.28;82.66
13091;DHT22;6611;52.604;13.438;2023-02-01T06:34:53;5.22;82.81
13091;DHT22;6611;52.604;13.438;2023-02-01T06:39:57;5.16;84.15
13091;DHT22;6611;52.604;13.438;2023-02-01T06:44:59;5.11;84.35
13091;DHT22;6611;52.604;13.438;2023-02-01T06:50:00;5.09;84.54
13091;DHT22;6611;52.604;13.438;2023-02-01T06:55:04;5.09;84.50
13091;DHT22;6611;52.604;13.438;2023-02-01T07:00:07;5.07;84.28
13091;DHT22;6611;52.604;13.438;2023-02-01T07:05:09;5.07;83.94
13091;DHT22;6611;52.604;13.438;2023-02-01T07:10:12;5.08;83.03
13091;DHT22;6611;52.604;13.438;2023-02-01T07:15:14;5.11;82.56
13091;DHT22;6611;52.604;13.438;2023-02-01T07:20:16;5.11;82.40
13091;DHT22;6611;52.604;13.438;2023-02-01T07:25:19;5.02;83.06
13091;DHT22;6611;52.604;13.438;2023-02-01T07:30:21;4.99;83.09
13091;DHT22;6611;52.604;13.438;2023-02-01T07:35:22;4.96;83.58
13091;DHT22;6611;52.604;13.438;2023-02-01T07:40:25;5.08;83.79
13091;DHT22;6611;52.604;13.438;2023-02-01T07:45:28;5.16;83.49
13091;DHT22;6611;52.604;13.438;2023-02-01T07:50:30;5.19;83.54
13091;DHT22;6611;52.604;13.438;2023-02-01T07:55:34;5.09;84.60
13091;DHT22;6611;52.604;13.438;2023-02-01T08:00:36;4.94;85.08
13091;DHT22;6611;52.604;13.438;2023-02-01T08:05:56;4.67;86.27
13091;DHT22;6611;52.604;13.438;2023-02-01T08:10:59;4.56;87.24
13091;DHT22;6611;52.604;13.438;2023-02-01T08:16:03;4.50;87.45
13091;DHT22;6611;52.604;13.438;2023-02-01T08:21:06;4.46;87.52
13091;DHT22;6611;52.604;13.438;2023-02-01T08:26:11;4.48;87.71
13091;DHT22;6611;52.604;13.438;2023-02-01T08:31:16;4.35;88.10
13091;DHT22;6611;52.604;13.438;2023-02-01T08:36:18;4.38;87.75
13091;DHT22;6611;52.604;13.438;2023-02-01T08:41:23;4.31;88.22
13091;DHT22;6611;52.604;13.438;2023-02-01T08:46:25;4.48;88.02
13091;DHT22;6611;52.604;13.438;2023-02-01T08:51:26;4.49;88.13
13091;DHT22;6611;52.604;13.438;2023-02-01T08:56:31;4.57;89.06
13091;DHT22;6611;52.604;13.438;2023-02-01T09:01:32;4.73;87.59
13091;DHT22;6611;52.604;13.438;2023-02-01T09:06:34;4.74;87.15
13091;DHT22;6611;52.604;13.438;2023-02-01T09:11:37;4.61;87.72
13091;DHT22;6611;52.604;13.438;2023-02-01T09:16:39;4.63;87.93
13091;DHT22;6611;52.604;13.438;2023-02-01T09:21:40;4.66;88.06
13091;DHT22;6611;52.604;13.438;2023-02-01T09:26:43;4.67;88.70
13091;DHT22;6611;52.604;13.438;2023-02-01T09:31:45;4.64;88.75
13091;DHT22;6611;52.604;13.438;2023-02-01T09:36:46;4.63;88.85
13091;DHT22;6611;52.604;13.438;2023-02-01T09:41:58;4.67;88.67
13091;DHT22;6611;52.604;13.438;2023-02-01T09:47:01;4.73;88.36
13091;DHT22;6611;52.604;13.438;2023-02-01T09:52:06;4.71;87.88
13091;DHT22;6611;52.604;13.438;2023-02-01T09:57:15;4.76;88.42
13091;DHT22;6611;52.604;13.438;2023-02-01T10:02:20;4.73;88.75
13091;DHT22;6611;52.604;13.438;2023-02-01T10:07:30;4.77;88.05
13091;DHT22;6611;52.604;13.438;2023-02-01T10:13:07;4.67;87.83
13091;DHT22;6611;52.604;13.438;2023-02-01T10:18:37;4.68;88.29
13091;DHT22;6611;52.604;13.438;2023-02-01T10:24:02;4.73;87.31
13091;DHT22;6611;52.604;13.438;2023-02-01T10:29:14;4.66;88.61
13091;DHT22;6611;52.604;13.438;2023-02-01T10:34:19;4.73;88.24
13091;DHT22;6611;52.604;13.438;2023-02-01T10:39:22;4.89;89.00
13091;DHT22;6611;52.604;13.438;2023-02-01T10:44:28;5.20;87.99
13091;DHT22;6611;52.604;13.438;2023-02-01T10:49:34;5.19;87.37
13091;DHT22;6611;52.604;13.438;2023-02-01T10:54:39;5.18;87.46
13091;DHT22;6611;52.604;13.438;2023-02-01T10:59:42;5.04;87.10
13091;DHT22;6611;52.604;13.438;2023-02-01T11:04:43;5.04;87.17
13091;DHT22;6611;52.604;13.438;2023-02-01T11:09:49;5.16;86.98
13091;DHT22;6611;52.604;13.438;2023-02-01T11:14:57;5.36;87.35
13091;DHT22;6611;52.604;13.438;2023-02-01T11:20:00;5.53;86.13
13091;DHT22;6611;52.604;13.438;2023-02-01T11:25:09;5.50;86.21
13091;DHT22;6611;52.604;13.438;2023-02-01T11:30:18;5.88;86.59
13091;DHT22;6611;52.604;13.438;2023-02-01T11:35:21;6.78;86.54
13091;DHT22;6611;52.604;13.438;2023-02-01T11:40:27;7.22;82.10
13091;DHT22;6611;52.604;13.438;2023-02-01T11:45:31;7.06;82.15
13091;DHT22;6611;52.604;13.438;2023-02-01T11:50:39;7.26;80.99
13091;DHT22;6611;52.604;13.438;2023-02-01T11:56:01;7.59;79.44
13091;DHT22;6611;52.604;13.438;2023-02-01T12:01:23;7.13;81.52
13091;DHT22;6611;52.604;13.438;2023-02-01T12:06:38;7.12;81.49
13091;DHT22;6611;52.604;13.438;2023-02-01T12:11:59;7.40;79.38
13091;DHT22;6611;52.604;13.438;2023-02-01T12:22:52;7.16;79.94
13091;DHT22;6611;52.604;13.438;2023-02-01T12:28:31;7.24;78.91
13091;DHT22;6611;52.604;13.438;2023-02-01T12:33:46;7.24;78.30
13091;DHT22;6611;52.604;13.438;2023-02-01T12:38:54;7.17;78.66
13091;DHT22;6611;52.604;13.438;2023-02-01T12:44:01;6.87;80.27
13091;DHT22;6611;52.604;13.438;2023-02-01T12:49:12;6.67;82.01
13091;DHT22;6611;52.604;13.438;2023-02-01T12:54:22;6.47;83.08
13091;DHT22;6611;52.604;13.438;2023-02-01T12:59:29;5.81;85.81
13091;DHT22;6611;52.604;13.438;2023-02-01T13:04:49;5.11;83.35
13091;DHT22;6611;52.604;13.438;2023-02-01T13:09:55;4.42;83.89
13091;DHT22;6611;52.604;13.438;2023-02-01T13:15:01;3.69;84.42
13091;DHT22;6611;52.604;13.438;2023-02-01T13:20:09;3.45;86.32
13091;DHT22;6611;52.604;13.438;2023-02-01T13:25:29;3.45;87.07
13091;DHT22;6611;52.604;13.438;2023-02-01T13:30:46;3.56;87.12
13091;DHT22;6611;52.604;13.438;2023-02-01T13:36:21;3.60;87.41
13091;DHT22;6611;52.604;13.438;2023-02-01T13:41:27;3.60;88.11
13091;DHT22;6611;52.604;13.438;2023-02-01T13:46:30;3.70;88.44
13091;DHT22;6611;52.604;13.438;2023-02-01T13:51:43;4.05;88.94
13091;DHT22;6611;52.604;13.438;2023-02-01T13:56:46;4.52;88.96
13091;DHT22;6611;52.604;13.438;2023-02-01T14:01:47;5.23;86.96
13091;DHT22;6611;52.604;13.438;2023-02-01T14:06:53;5.39;86.59
13091;DHT22;6611;52.604;13.438;2023-02-01T14:11:55;5.39;86.70
13091;DHT22;6611;52.604;13.438;2023-02-01T14:22:34;5.88;84.32
13091;DHT22;6611;52.604;13.438;2023-02-01T14:27:36;5.54;85.67
13091;DHT22;6611;52.604;13.438;2023-02-01T14:32:38;5.42;85.84
13091;DHT22;6611;52.604;13.438;2023-02-01T14:37:43;5.32;87.19
13091;DHT22;6611;52.604;13.438;2023-02-01T14:42:47;5.50;86.94
13091;DHT22;6611;52.604;13.438;2023-02-01T14:47:49;5.42;87.55
13091;DHT22;6611;52.604;13.438;2023-02-01T14:53:03;5.56;87.45
13091;DHT22;6611;52.604;13.438;2023-02-01T14:58:09;5.60;87.11
13091;DHT22;6611;52.604;13.438;2023-02-01T15:03:27;5.53;87.40
13091;DHT22;6611;52.604;13.438;2023-02-01T15:08:35;5.68;87.75
13091;DHT22;6611;52.604;13.438;2023-02-01T15:13:38;5.91;86.58
13091;DHT22;6611;52.604;13.438;2023-02-01T15:18:40;5.77;86.98
13091;DHT22;6611;52.604;13.438;2023-02-01T15:23:43;5.95;85.17
13091;DHT22;6611;52.604;13.438;2023-02-01T15:28:48;5.68;85.42
13091;DHT22;6611;52.604;13.438;2023-02-01T15:33:56;5.28;86.38
13091;DHT22;6611;52.604;13.438;2023-02-01T15:39:16;5.04;86.88
13091;DHT22;6611;52.604;13.438;2023-02-01T15:44:29;4.98;87.26
13091;DHT22;6611;52.604;13.438;2023-02-01T15:49:37;4.95;87.34
13091;DHT22;6611;52.604;13.438;2023-02-01T15:54:49;4.76;87.93
13091;DHT22;6611;52.604;13.438;2023-02-01T15:59:53;4.48;88.30
13091;DHT22;6611;52.604;13.438;2023-02-01T16:04:56;4.18;88.43
13091;DHT22;6611;52.604;13.438;2023-02-01T16:10:01;3.88;88.30
13091;DHT22;6611;52.604;13.438;2023-02-01T16:15:07;3.74;88.52
13091;DHT22;6611;52.604;13.438;2023-02-01T16:20:11;3.66;88.70
13091;DHT22;6611;52.604;13.438;2023-02-01T16:25:14;3.60;88.80
13091;DHT22;6611;52.604;13.438;2023-02-01T16:30:16;3.62;88.79
13091;DHT22;6611;52.604;13.438;2023-02-01T16:35:24;3.62;88.95
13091;DHT22;6611;52.604;13.438;2023-02-01T16:40:27;3.63;88.83
13091;DHT22;6611;52.604;13.438;2023-02-01T16:45:29;3.55;88.64
13091;DHT22;6611;52.604;13.438;2023-02-01T16:50:32;3.43;89.11
13091;DHT22;6611;52.604;13.438;2023-02-01T16:55:35;3.43;88.92
13091;DHT22;6611;52.604;13.438;2023-02-01T17:00:37;3.39;89.23
13091;DHT22;6611;52.604;13.438;2023-02-01T17:05:39;3.39;89.43
13091;DHT22;6611;52.604;13.438;2023-02-01T17:10:44;3.38;89.77
13091;DHT22;6611;52.604;13.438;2023-02-01T17:15:50;3.36;90.06
13091;DHT22;6611;52.604;13.438;2023-02-01T17:20:52;3.45;89.37
13091;DHT22;6611;52.604;13.438;2023-02-01T17:25:56;3.49;89.78
13091;DHT22;6611;52.604;13.438;2023-02-01T17:30:58;3.49;89.60
13091;DHT22;6611;52.604;13.438;2023-02-01T17:36:00;3.52;89.90
13091;DHT22;6611;52.604;13.438;2023-02-01T17:41:03;3.62;89.36
13091;DHT22;6611;52.604;13.438;2023-02-01T17:46:09;3.66;89.71
13091;DHT22;6611;52.604;13.438;2023-02-01T17:51:15;3.69;89.44
13091;DHT22;6611;52.604;13.438;2023-02-01T17:56:20;3.73;89.77
13091;DHT22;6611;52.604;13.438;2023-02-01T18:01:23;3.77;89.97
13091;DHT22;6611;52.604;13.438;2023-02-01T18:06:26;3.86;89.39
13091;DHT22;6611;52.604;13.438;2023-02-01T18:11:29;3.90;88.97
13091;DHT22;6611;52.604;13.438;2023-02-01T18:16:33;3.95;89.58
13091;DHT22;6611;52.604;13.438;2023-02-01T18:21:37;3.95;89.29
13091;DHT22;6611;52.604;13.438;2023-02-01T18:26:41;3.97;89.17
13091;DHT22;6611;52.604;13.438;2023-02-01T18:31:45;4.05;88.83
13091;DHT22;6611;52.604;13.438;2023-02-01T18:36:47;4.08;88.86
13091;DHT22;6611;52.604;13.438;2023-02-01T18:41:50;4.09;88.93
13091;DHT22;6611;52.604;13.438;2023-02-01T18:46:52;4.12;88.54
13091;DHT22;6611;52.604;13.438;2023-02-01T18:51:53;4.18;88.55
13091;DHT22;6611;52.604;13.438;2023-02-01T18:56:56;4.19;88.63
13091;DHT22;6611;52.604;13.438;2023-02-01T19:01:58;4.28;87.95
13091;DHT22;6611;52.604;13.438;2023-02-01T19:07:00;4.28;87.85
13091;DHT22;6611;52.604;13.438;2023-02-01T19:12:03;4.28;88.60
13091;DHT22;6611;52.604;13.438;2023-02-01T19:17:04;4.33;87.98
13091;DHT22;6611;52.604;13.438;2023-02-01T19:22:06;4.46;87.71
13091;DHT22;6611;52.604;13.438;2023-02-01T19:27:09;4.48;87.69
13091;DHT22;6611;52.604;13.438;2023-02-01T19:32:11;4.53;87.40
13091;DHT22;6611;52.604;13.438;2023-02-01T19:37:13;4.57;87.26
13091;DHT22;6611;52.604;13.438;2023-02-01T19:42:16;4.54;87.33
13091;DHT22;6611;52.604;13.438;2023-02-01T19:47:18;4.57;87.25
13091;DHT22;6611;52.604;13.438;2023-02-01T19:52:20;4.64;86.83
13091;DHT22;6611;52.604;13.438;2023-02-01T19:57:23;4.59;86.58
13091;DHT22;6611;52.604;13.438;2023-02-01T20:02:25;4.54;86.55
13091;DHT22;6611;52.604;13.438;2023-02-01T20:07:28;4.54;86.46
13091;DHT22;6611;52.604;13.438;2023-02-01T20:12:31;4.56;86.21
13091;DHT22;6611;52.604;13.438;2023-02-01T20:17:33;4.52;86.54
13091;DHT22;6611;52.604;13.438;2023-02-01T20:22:35;4.52;86.37
13091;DHT22;6611;52.604;13.438;2023-02-01T20:27:38;4.61;85.87
13091;DHT22;6611;52.604;13.438;2023-02-01T20:32:40;4.63;85.75
13091;DHT22;6611;52.604;13.438;2023-02-01T20:37:42;4.60;86.12
13091;DHT22;6611;52.604;13.438;2023-02-01T20:42:45;4.64;85.33
13091;DHT22;6611;52.604;13.438;2023-02-01T20:47:48;4.64;84.85
13091;DHT22;6611;52.604;13.438;2023-02-01T20:52:50;4.66;84.88
13091;DHT22;6611;52.604;13.438;2023-02-01T20:57:53;4.63;84.58
13091;DHT22;6611;52.604;13.438;2023-02-01T21:02:54;4.54;84.93
13091;DHT22;6611;52.604;13.438;2023-02-01T21:07:56;4.53;85.06
13091;DHT22;6611;52.604;13.438;2023-02-01T21:12:59;4.48;85.46
13091;DHT22;6611;52.604;13.438;2023-02-01T21:18:02;4.45;84.69
13091;DHT22;6611;52.604;13.438;2023-02-01T21:23:04;4.40;84.83
13091;DHT22;6611;52.604;13.438;2023-02-01T21:28:07;4.43;84.71
13091;DHT22;6611;52.604;13.438;2023-02-01T21:33:09;4.46;85.39
13091;DHT22;6611;52.604;13.438;2023-02-01T21:38:11;4.89;83.97
13091;DHT22;6611;52.604;13.438;2023-02-01T21:43:14;5.07;84.23
13091;DHT22;6611;52.604;13.438;2023-02-01T21:48:15;5.90;80.40
13091;DHT22;6611;52.604;13.438;2023-02-01T21:53:17;5.74;78.81
13091;DHT22;6611;52.604;13.438;2023-02-01T21:58:20;4.91;81.59
13091;DHT22;6611;52.604;13.438;2023-02-01T22:03:22;4.59;82.16
13091;DHT22;6611;52.604;13.438;2023-02-01T22:08:24;4.38;82.70
13091;DHT22;6611;52.604;13.438;2023-02-01T22:13:27;4.42;82.69
13091;DHT22;6611;52.604;13.438;2023-02-01T22:18:29;4.35;83.92
13091;DHT22;6611;52.604;13.438;2023-02-01T22:23:32;4.43;82.78
13091;DHT22;6611;52.604;13.438;2023-02-01T22:28:35;4.49;82.81
13091;DHT22;6611;52.604;13.438;2023-02-01T22:33:37;4.50;82.26
13091;DHT22;6611;52.604;13.438;2023-02-01T22:38:39;4.45;82.65
13091;DHT22;6611;52.604;13.438;2023-02-01T22:43:42;4.52;82.51
13091;DHT22;6611;52.604;13.438;2023-02-01T22:48:45;4.57;81.98
13091;DHT22;6611;52.604;13.438;2023-02-01T22:53:47;4.54;82.09
13091;DHT22;6611;52.604;13.438;2023-02-01T22:58:58;4.57;82.13
13091;DHT22;6611;52.604;13.438;2023-02-01T23:04:02;4.60;82.19
13091;DHT22;6611;52.604;13.438;2023-02-01T23:09:08;4.57;81.97
13091;DHT22;6611;52.604;13.438;2023-02-01T23:14:13;4.60;82.08
13091;DHT22;6611;52.604;13.438;2023-02-01T23:19:15;4.64;82.45
13091;DHT22;6611;52.604;13.438;2023-02-01T23:24:19;4.63;82.13
13091;DHT22;6611;52.604;13.438;2023-02-01T23:29:22;4.53;82.84
13091;DHT22;6611;52.604;13.438;2023-02-01T23:34:24;4.49;82.83
13091;DHT22;6611;52.604;13.438;2023-02-01T23:39:26;4.49;83.10
13091;DHT22;6611;52.604;13.438;2023-02-01T23:44:29;4.53;83.04
13091;DHT22;6611;52.604;13.438;2023-02-01T23:49:30;4.56;82.73
13091;DHT22;6611;52.604;13.438;2023-02-01T23:54:32;4.50;83.47
13091;DHT22;6611;52.604;13.438;2023-02-01T23:59:35;4.68;82.58
